Union, OR

4:43 PM PDT on June 24, 2017 (GMT -0700)
MODT19 | | Change Station
Active Advisory: Fire Weather Watch

Elev 3634 ft 45.19 °N, 117.99 °W | Updated 38 days ago

Clear
Clear
39.0 °F
Feels Like 33 °F
N
8.0
Wind Variable Wind from NW

Today
High -- | Low -- °F
--% Chance of Precip.
Yesterday
High -- | Low -- °F
Precip. -- in
Pressure 30.14 in
Visibility 10.0 miles
Clouds Clear
Windchill 33 °F
Dew Point 30 °F
Humidity 69%
Rainfall 0.00 in
Snow Depth Not available.
5:05 AM 8:43 PM
New Moon, 1% visible
METAR KLGD 242335Z AUTO 03007KT 10SM CLR 30/M07 A3014 RMK AO1
Pressure 30.14 in
Visibility 10.0 miles
Clouds Clear
Windchill 33 °F
Dew Point 30 °F
Humidity 69%
Rainfall 0.00 in
Snow Depth Not available.
5:05 AM 8:43 PM
New Moon, 1% visible
METAR KLGD 242335Z AUTO 03007KT 10SM CLR 30/M07 A3014 RMK AO1

Get Your Daily Forecast Email!

Thanks for signing up!

Be on the lookout for a verification email in your inbox.

You'll start receiving severe weather alerts in your inbox..

×

10-Day Weather Forecast

Almanac

Astronomy

Jun. 24, 2017 Rise Set
Actual Time
Civil Twilight
Nautical Twilight
Astronomical Twilight
Moon
Length of Visible Light
Length of Day
Tomorrow will be .
, % of the Moon is Illuminated

Today's Extremes

State Highs State Lows

Community

WunderPhotos

Category 6

Welcome to Category 6. This is the collective home for Weather Underground's featured writeups by Dr. Jeff Masters (right), Bob Henson (left), Chris Burt, and other regular contributors.

Nearby

Air Quality

  Air Quality AQ Index Pollutant
Not available.

Snow Depth

Station Depth Elevation

Earthquake Activity

City Distance Mag. Time & Date
Minimum magnitude displayed is 2.5.

Coastal Water Temperatures

Place Temperature

Stations

Nearby Weather Stations

Station Location Temp. Windchill Dew Point Humidity Wind Precip. Elev Updated Type
                   

Watches & Warnings

Fire Weather Watch
Issued: 1:54 PM PDT Jun. 24, 2017 – National Weather Service

... Fire Weather Watch remains in effect from Monday morning
through Monday evening for abundant lightning and gusty outflow
winds for fire weather zone 644...

* affected area... in orz644... fire weather zone 644.

* Timing... thunderstorms will develop in central Oregon Monday
morning then eastern Oregon Monday afternoon.

* Lightning activity... 4 which means frequent lightning is
expected and moderate rain is commonly produced.

* Precipitation... storms will initially bring little
precipitation but will gradually become wet with some storms
producing moderate to heavy downpours.

* Impacts... any fires that develop will likely spread rapidly
in The Grasses and shrubs. Outdoor burning is not
recommended.

Precautionary/preparedness actions...

A Fire Weather Watch means that critical fire weather conditions
are forecast to occur. Listen for later forecasts and possible
red flag warnings.